Terminal Aerodrome Forecast
Issued by NWS

Home | Current Version | Previous Version | Text Only | Print | Product List | Glossary Off
Versions: 1 2 3 4 5 6 7 8 9 10 11 12 13 14 15 16 17 18 19 20 21 22 23

000
FTUS43 KABR 230600 AAA
TAFPIR
TAF AMD
KPIR 230608Z 2306/2406 33022G28KT 3SM -SN BR FEW007 OVC013
      TEMPO 2306/2310 2SM -SN BLSN OVC008
     FM231800 32020G30KT 2SM -SN BLSN OVC015
     FM232300 32017KT P6SM OVC010=

USA.gov is the U.S. government's official web portal to all federal, state and local government web resources and services.